PWSweather.com
Personal Weather Stations
Station Observations
NAGEO265NE
Bedzin GrodziecPL 42-506

Bedzin GrodziecPL 42-506

Lat: 50.347, Lon: 19.079

Elevation: 948

Station Type: WH1080

http://www.meteo-grodziec.pl/

High Low Average
Temperature 80.4°F26.9°C 63.0°F17.2°C 72.3°F22.4°C
Dew Point 65.3°F18.5°C 59.5°F15.3°C 62.2°F16.8°C
Winds 9.0 mph 14.5 kmh Calm Calm 4.0 mph ENE6.4 kmh ENE
Wind Gusts 19.0 mph30.6 kmh -- 9.0 mph14.5 kmh
Humidity 90% 55% 71%
Pressure 29.85 in1010.8 mb 29.77 in1008.1 mb -
Precipitation 0.00 in0.0 mm - -
Hour Temp Dew Point Humidity Winds Wind Gusts Pressure Precip Precip Rate Daily Precip Total
12:00 AM 66.2°F19.0°C 59.5°F15.3°C 79% 3.0 mph NE4.8 kmh NE 7.0 mph11.3 kmh 29.85 in1010.8 mb 0.00 in0.0 mm 0.00 in0.0 mm 0.00 in0.0 mm
12:05 AM 66.0°F18.9°C 59.7°F15.4°C 80% 3.0 mph NE4.8 kmh NE 7.0 mph11.3 kmh 29.85 in1010.8 mb 0.00 in0.0 mm 0.00 in0.0 mm 0.00 in0.0 mm
12:10 AM 66.0°F18.9°C 59.7°F15.4°C 80% 3.0 mph NE4.8 kmh NE 7.0 mph11.3 kmh 29.85 in1010.8 mb 0.00 in0.0 mm 0.00 in0.0 mm 0.00 in0.0 mm
12:15 AM 66.0°F18.9°C 59.7°F15.4°C 80% 3.0 mph NE4.8 kmh NE 7.0 mph11.3 kmh 29.85 in1010.8 mb 0.00 in0.0 mm 0.00 in0.0 mm 0.00 in0.0 mm
12:20 AM 66.0°F18.9°C 59.7°F15.4°C 80% 3.0 mph NE4.8 kmh NE 7.0 mph11.3 kmh 29.84 in1010.5 mb 0.00 in0.0 mm 0.00 in0.0 mm 0.00 in0.0 mm
12:25 AM 66.0°F18.9°C 60.1°F15.6°C 81% 3.0 mph NE4.8 kmh NE 6.0 mph9.7 kmh 29.84 in1010.5 mb 0.00 in0.0 mm 0.00 in0.0 mm 0.00 in0.0 mm
12:30 AM 66.0°F18.9°C 60.1°F15.6°C 81% 2.0 mph NE3.2 kmh NE 5.0 mph8.0 kmh 29.84 in1010.5 mb 0.00 in0.0 mm 0.00 in0.0 mm 0.00 in0.0 mm
12:35 AM 65.8°F18.8°C 59.9°F15.5°C 81% 2.0 mph NE3.2 kmh NE 4.0 mph6.4 kmh 29.84 in1010.5 mb 0.00 in0.0 mm 0.00 in0.0 mm 0.00 in0.0 mm
12:40 AM 65.8°F18.8°C 60.1°F15.6°C 82% 3.0 mph NE4.8 kmh NE 6.0 mph9.7 kmh 29.84 in1010.5 mb 0.00 in0.0 mm 0.00 in0.0 mm 0.00 in0.0 mm
12:45 AM 65.8°F18.8°C 60.3°F15.7°C 82% 3.0 mph NE4.8 kmh NE 6.0 mph9.7 kmh 29.84 in1010.5 mb 0.00 in0.0 mm 0.00 in0.0 mm 0.00 in0.0 mm
12:50 AM 65.8°F18.8°C 60.1°F15.6°C 82% 3.0 mph NE4.8 kmh NE 6.0 mph9.7 kmh 29.83 in1010.2 mb 0.00 in0.0 mm 0.00 in0.0 mm 0.00 in0.0 mm
12:55 AM 65.7°F18.7°C 60.4°F15.8°C 83% 3.0 mph NE4.8 kmh NE 7.0 mph11.3 kmh 29.83 in1010.2 mb 0.00 in0.0 mm 0.00 in0.0 mm 0.00 in0.0 mm
01:00 AM 65.7°F18.7°C 60.3°F15.7°C 83% 3.0 mph NE4.8 kmh NE 7.0 mph11.3 kmh 29.83 in1010.2 mb 0.00 in0.0 mm 0.00 in0.0 mm 0.00 in0.0 mm
01:05 AM 65.5°F18.6°C 60.3°F15.7°C 83% 3.0 mph NE4.8 kmh NE 6.0 mph9.7 kmh 29.83 in1010.2 mb 0.00 in0.0 mm 0.00 in0.0 mm 0.00 in0.0 mm
01:10 AM 65.5°F18.6°C 60.3°F15.7°C 83% 2.0 mph NE3.2 kmh NE 5.0 mph8.0 kmh 29.83 in1010.2 mb 0.00 in0.0 mm 0.00 in0.0 mm 0.00 in0.0 mm
01:15 AM 65.5°F18.6°C 60.6°F15.9°C 84% 2.0 mph NE3.2 kmh NE 6.0 mph9.7 kmh 29.83 in1010.2 mb 0.00 in0.0 mm 0.00 in0.0 mm 0.00 in0.0 mm
01:20 AM 65.5°F18.6°C 60.6°F15.9°C 84% 3.0 mph NE4.8 kmh NE 6.0 mph9.7 kmh 29.83 in1010.2 mb 0.00 in0.0 mm 0.00 in0.0 mm 0.00 in0.0 mm
01:25 AM 65.5°F18.6°C 60.6°F15.9°C 84% 3.0 mph NE4.8 kmh NE 6.0 mph9.7 kmh 29.83 in1010.2 mb 0.00 in0.0 mm 0.00 in0.0 mm 0.00 in0.0 mm
01:30 AM 65.5°F18.6°C 60.6°F15.9°C 84% 3.0 mph NE4.8 kmh NE 6.0 mph9.7 kmh 29.83 in1010.2 mb 0.00 in0.0 mm 0.00 in0.0 mm 0.00 in0.0 mm
01:35 AM 65.5°F18.6°C 60.6°F15.9°C 84% 3.0 mph NE4.8 kmh NE 6.0 mph9.7 kmh 29.83 in1010.2 mb 0.00 in0.0 mm 0.00 in0.0 mm 0.00 in0.0 mm
01:40 AM 65.5°F18.6°C 60.4°F15.8°C 84% 2.0 mph NE3.2 kmh NE 6.0 mph9.7 kmh 29.83 in1010.2 mb 0.00 in0.0 mm 0.00 in0.0 mm 0.00 in0.0 mm
01:45 AM 65.5°F18.6°C 60.8°F16.0°C 85% 2.0 mph NE3.2 kmh NE 6.0 mph9.7 kmh 29.83 in1010.2 mb 0.00 in0.0 mm 0.00 in0.0 mm 0.00 in0.0 mm
01:50 AM 65.3°F18.5°C 60.6°F15.9°C 85% 2.0 mph NE3.2 kmh NE 6.0 mph9.7 kmh 29.83 in1010.2 mb 0.00 in0.0 mm 0.00 in0.0 mm 0.00 in0.0 mm
01:55 AM 65.1°F18.4°C 60.6°F15.9°C 85% 3.0 mph NE4.8 kmh NE 6.0 mph9.7 kmh 29.83 in1010.2 mb 0.00 in0.0 mm 0.00 in0.0 mm 0.00 in0.0 mm
02:00 AM 65.1°F18.4°C 60.4°F15.8°C 85% 3.0 mph NE4.8 kmh NE 6.0 mph9.7 kmh 29.83 in1010.2 mb 0.00 in0.0 mm 0.00 in0.0 mm 0.00 in0.0 mm
02:05 AM 65.1°F18.4°C 60.4°F15.8°C 85% 2.0 mph NE3.2 kmh NE 6.0 mph9.7 kmh 29.83 in1010.2 mb 0.00 in0.0 mm 0.00 in0.0 mm 0.00 in0.0 mm
02:10 AM 64.9°F18.3°C 60.3°F15.7°C 85% 2.0 mph NE3.2 kmh NE 5.0 mph8.0 kmh 29.82 in1009.8 mb 0.00 in0.0 mm 0.00 in0.0 mm 0.00 in0.0 mm
02:15 AM 64.8°F18.2°C 60.4°F15.8°C 86% 1.0 mph NE1.6 kmh NE 5.0 mph8.0 kmh 29.82 in1009.8 mb 0.00 in0.0 mm 0.00 in0.0 mm 0.00 in0.0 mm
02:20 AM 64.8°F18.2°C 60.4°F15.8°C 86% 1.0 mph NE1.6 kmh NE 3.0 mph4.8 kmh 29.82 in1009.8 mb 0.00 in0.0 mm 0.00 in0.0 mm 0.00 in0.0 mm
02:25 AM 64.6°F18.1°C 60.3°F15.7°C 86% 1.0 mph NE1.6 kmh NE 3.0 mph4.8 kmh 29.82 in1009.8 mb 0.00 in0.0 mm 0.00 in0.0 mm 0.00 in0.0 mm
02:30 AM 64.6°F18.1°C 60.6°F15.9°C 87% 1.0 mph NE1.6 kmh NE 3.0 mph4.8 kmh 29.82 in1009.8 mb 0.00 in0.0 mm 0.00 in0.0 mm 0.00 in0.0 mm
02:35 AM 64.6°F18.1°C 60.6°F15.9°C 87% 1.0 mph NE1.6 kmh NE 3.0 mph4.8 kmh 29.83 in1010.2 mb 0.00 in0.0 mm 0.00 in0.0 mm 0.00 in0.0 mm
02:40 AM 64.6°F18.1°C 60.6°F15.9°C 87% 2.0 mph NE3.2 kmh NE 5.0 mph8.0 kmh 29.83 in1010.2 mb 0.00 in0.0 mm 0.00 in0.0 mm 0.00 in0.0 mm
02:45 AM 64.6°F18.1°C 60.6°F15.9°C 87% 2.0 mph ENE3.2 kmh ENE 6.0 mph9.7 kmh 29.82 in1009.8 mb 0.00 in0.0 mm 0.00 in0.0 mm 0.00 in0.0 mm
02:50 AM 64.4°F18.0°C 60.4°F15.8°C 87% 3.0 mph ENE4.8 kmh ENE 6.0 mph9.7 kmh 29.82 in1009.8 mb 0.00 in0.0 mm 0.00 in0.0 mm 0.00 in0.0 mm
02:55 AM 64.2°F17.9°C 60.3°F15.7°C 87% 2.0 mph ENE3.2 kmh ENE 6.0 mph9.7 kmh 29.82 in1009.8 mb 0.00 in0.0 mm 0.00 in0.0 mm 0.00 in0.0 mm
03:00 AM 64.2°F17.9°C 60.6°F15.9°C 88% 2.0 mph NE3.2 kmh NE 7.0 mph11.3 kmh 29.83 in1010.2 mb 0.00 in0.0 mm 0.00 in0.0 mm 0.00 in0.0 mm
03:05 AM 64.0°F17.8°C 60.4°F15.8°C 88% 2.0 mph NE3.2 kmh NE 7.0 mph11.3 kmh 29.82 in1009.8 mb 0.00 in0.0 mm 0.00 in0.0 mm 0.00 in0.0 mm
03:10 AM 63.9°F17.7°C 60.3°F15.7°C 88% 2.0 mph NE3.2 kmh NE 6.0 mph9.7 kmh 29.82 in1009.8 mb 0.00 in0.0 mm 0.00 in0.0 mm 0.00 in0.0 mm
03:15 AM 63.9°F17.7°C 60.3°F15.7°C 88% 1.0 mph NE1.6 kmh NE 5.0 mph8.0 kmh 29.82 in1009.8 mb 0.00 in0.0 mm 0.00 in0.0 mm 0.00 in0.0 mm
03:20 AM 63.7°F17.6°C 60.1°F15.6°C 88% 1.0 mph NE1.6 kmh NE 5.0 mph8.0 kmh 29.82 in1009.8 mb 0.00 in0.0 mm 0.00 in0.0 mm 0.00 in0.0 mm
03:25 AM 63.7°F17.6°C 60.3°F15.7°C 89% 1.0 mph NE1.6 kmh NE 3.0 mph4.8 kmh 29.82 in1009.8 mb 0.00 in0.0 mm 0.00 in0.0 mm 0.00 in0.0 mm
03:30 AM 63.7°F17.6°C 60.3°F15.7°C 89% 1.0 mph NE1.6 kmh NE 3.0 mph4.8 kmh 29.82 in1009.8 mb 0.00 in0.0 mm 0.00 in0.0 mm 0.00 in0.0 mm
03:35 AM 63.5°F17.5°C 60.3°F15.7°C 89% 1.0 mph ENE1.6 kmh ENE 3.0 mph4.8 kmh 29.82 in1009.8 mb 0.00 in0.0 mm 0.00 in0.0 mm 0.00 in0.0 mm
03:40 AM 63.3°F17.4°C 60.1°F15.6°C 89% Calm Calm 2.0 mph3.2 kmh 29.82 in1009.8 mb 0.00 in0.0 mm 0.00 in0.0 mm 0.00 in0.0 mm
03:45 AM 63.1°F17.3°C 59.9°F15.5°C 89% Calm Calm 3.0 mph4.8 kmh 29.82 in1009.8 mb 0.00 in0.0 mm 0.00 in0.0 mm 0.00 in0.0 mm
03:50 AM 63.1°F17.3°C 59.9°F15.5°C 89% 1.0 mph ENE1.6 kmh ENE 3.0 mph4.8 kmh 29.82 in1009.8 mb 0.00 in0.0 mm 0.00 in0.0 mm 0.00 in0.0 mm
03:55 AM 63.1°F17.3°C 59.9°F15.5°C 89% Calm Calm 3.0 mph4.8 kmh 29.82 in1009.8 mb 0.00 in0.0 mm 0.00 in0.0 mm 0.00 in0.0 mm
04:00 AM 63.1°F17.3°C 60.1°F15.6°C 90% Calm Calm 3.0 mph4.8 kmh 29.82 in1009.8 mb 0.00 in0.0 mm 0.00 in0.0 mm 0.00 in0.0 mm
04:05 AM 63.0°F17.2°C 60.1°F15.6°C 90% Calm Calm 1.0 mph1.6 kmh 29.82 in1009.8 mb 0.00 in0.0 mm 0.00 in0.0 mm 0.00 in0.0 mm
04:10 AM 63.1°F17.3°C 60.3°F15.7°C 90% Calm Calm -- 29.82 in1009.8 mb 0.00 in0.0 mm 0.00 in0.0 mm 0.00 in0.0 mm
04:15 AM 63.3°F17.4°C 60.4°F15.8°C 90% Calm Calm 1.0 mph1.6 kmh 29.82 in1009.8 mb 0.00 in0.0 mm 0.00 in0.0 mm 0.00 in0.0 mm
04:20 AM 63.3°F17.4°C 60.1°F15.6°C 89% Calm Calm 1.0 mph1.6 kmh 29.83 in1010.2 mb 0.00 in0.0 mm 0.00 in0.0 mm 0.00 in0.0 mm
04:25 AM 63.5°F17.5°C 60.3°F15.7°C 89% Calm Calm 2.0 mph3.2 kmh 29.83 in1010.2 mb 0.00 in0.0 mm 0.00 in0.0 mm 0.00 in0.0 mm
04:30 AM 63.7°F17.6°C 60.4°F15.8°C 89% Calm Calm 2.0 mph3.2 kmh 29.83 in1010.2 mb 0.00 in0.0 mm 0.00 in0.0 mm 0.00 in0.0 mm
04:35 AM 63.7°F17.6°C 60.1°F15.6°C 88% Calm Calm -- 29.83 in1010.2 mb 0.00 in0.0 mm 0.00 in0.0 mm 0.00 in0.0 mm
04:40 AM 63.7°F17.6°C 60.1°F15.6°C 88% Calm Calm -- 29.83 in1010.2 mb 0.00 in0.0 mm 0.00 in0.0 mm 0.00 in0.0 mm
04:45 AM 64.0°F17.8°C 60.8°F16.0°C 89% Calm Calm -- 29.83 in1010.2 mb 0.00 in0.0 mm 0.00 in0.0 mm 0.00 in0.0 mm
04:50 AM 64.9°F18.3°C 61.7°F16.5°C 89% Calm Calm -- 29.83 in1010.2 mb 0.00 in0.0 mm 0.00 in0.0 mm 0.00 in0.0 mm
04:55 AM 66.7°F19.3°C 62.8°F17.1°C 87% Calm Calm -- 29.83 in1010.2 mb 0.00 in0.0 mm 0.00 in0.0 mm 0.00 in0.0 mm
05:00 AM 67.5°F19.7°C 62.1°F16.7°C 83% Calm Calm 1.0 mph1.6 kmh 29.83 in1010.2 mb 0.00 in0.0 mm 0.00 in0.0 mm 0.00 in0.0 mm
05:05 AM 67.3°F19.6°C 61.9°F16.6°C 83% Calm Calm 1.0 mph1.6 kmh 29.83 in1010.2 mb 0.00 in0.0 mm 0.00 in0.0 mm 0.00 in0.0 mm
05:10 AM 67.5°F19.7°C 62.1°F16.7°C 83% Calm Calm 2.0 mph3.2 kmh 29.83 in1010.2 mb 0.00 in0.0 mm 0.00 in0.0 mm 0.00 in0.0 mm
05:15 AM 67.6°F19.8°C 62.2°F16.8°C 83% Calm Calm 2.0 mph3.2 kmh 29.83 in1010.2 mb 0.00 in0.0 mm 0.00 in0.0 mm 0.00 in0.0 mm
05:20 AM 67.6°F19.8°C 62.1°F16.7°C 82% Calm Calm 2.0 mph3.2 kmh 29.83 in1010.2 mb 0.00 in0.0 mm 0.00 in0.0 mm 0.00 in0.0 mm
05:25 AM 68.0°F20.0°C 62.2°F16.8°C 82% Calm Calm 2.0 mph3.2 kmh 29.83 in1010.2 mb 0.00 in0.0 mm 0.00 in0.0 mm 0.00 in0.0 mm
05:30 AM 68.4°F20.2°C 62.2°F16.8°C 81% Calm Calm 2.0 mph3.2 kmh 29.83 in1010.2 mb 0.00 in0.0 mm 0.00 in0.0 mm 0.00 in0.0 mm
05:35 AM 68.2°F20.1°C 62.1°F16.7°C 81% 1.0 mph ENE1.6 kmh ENE 2.0 mph3.2 kmh 29.83 in1010.2 mb 0.00 in0.0 mm 0.00 in0.0 mm 0.00 in0.0 mm
05:40 AM 68.2°F20.1°C 62.4°F16.9°C 82% 1.0 mph E1.6 kmh E 2.0 mph3.2 kmh 29.84 in1010.5 mb 0.00 in0.0 mm 0.00 in0.0 mm 0.00 in0.0 mm
05:45 AM 68.4°F20.2°C 62.4°F16.9°C 81% 1.0 mph E1.6 kmh E 3.0 mph4.8 kmh 29.84 in1010.5 mb 0.00 in0.0 mm 0.00 in0.0 mm 0.00 in0.0 mm
05:50 AM 69.1°F20.6°C 62.6°F17.0°C 80% 1.0 mph ENE1.6 kmh ENE 3.0 mph4.8 kmh 29.84 in1010.5 mb 0.00 in0.0 mm 0.00 in0.0 mm 0.00 in0.0 mm
05:55 AM 68.7°F20.4°C 62.4°F16.9°C 80% 1.0 mph ENE1.6 kmh ENE 5.0 mph8.0 kmh 29.84 in1010.5 mb 0.00 in0.0 mm 0.00 in0.0 mm 0.00 in0.0 mm
06:00 AM 69.1°F20.6°C 62.6°F17.0°C 80% 2.0 mph ENE3.2 kmh ENE 5.0 mph8.0 kmh 29.84 in1010.5 mb 0.00 in0.0 mm 0.00 in0.0 mm 0.00 in0.0 mm
06:05 AM 69.3°F20.7°C 62.8°F17.1°C 80% 2.0 mph ENE3.2 kmh ENE 5.0 mph8.0 kmh 29.84 in1010.5 mb 0.00 in0.0 mm 0.00 in0.0 mm 0.00 in0.0 mm
06:10 AM 69.1°F20.6°C 62.6°F17.0°C 80% 2.0 mph ENE3.2 kmh ENE 5.0 mph8.0 kmh 29.84 in1010.5 mb 0.00 in0.0 mm 0.00 in0.0 mm 0.00 in0.0 mm
06:15 AM 69.4°F20.8°C 63.0°F17.2°C 80% 2.0 mph ENE3.2 kmh ENE 5.0 mph8.0 kmh 29.84 in1010.5 mb 0.00 in0.0 mm 0.00 in0.0 mm 0.00 in0.0 mm
06:20 AM 70.0°F21.1°C 63.5°F17.5°C 80% 2.0 mph E3.2 kmh E 5.0 mph8.0 kmh 29.84 in1010.5 mb 0.00 in0.0 mm 0.00 in0.0 mm 0.00 in0.0 mm
06:25 AM 70.3°F21.3°C 63.1°F17.3°C 78% 2.0 mph ENE3.2 kmh ENE 6.0 mph9.7 kmh 29.84 in1010.5 mb 0.00 in0.0 mm 0.00 in0.0 mm 0.00 in0.0 mm
06:30 AM 70.3°F21.3°C 63.5°F17.5°C 79% 3.0 mph ENE4.8 kmh ENE 6.0 mph9.7 kmh 29.84 in1010.5 mb 0.00 in0.0 mm 0.00 in0.0 mm 0.00 in0.0 mm
06:35 AM 70.9°F21.6°C 63.7°F17.6°C 78% 3.0 mph ENE4.8 kmh ENE 6.0 mph9.7 kmh 29.84 in1010.5 mb 0.00 in0.0 mm 0.00 in0.0 mm 0.00 in0.0 mm
06:40 AM 70.9°F21.6°C 63.3°F17.4°C 77% 3.0 mph ENE4.8 kmh ENE 9.0 mph14.5 kmh 29.83 in1010.2 mb 0.00 in0.0 mm 0.00 in0.0 mm 0.00 in0.0 mm
06:45 AM 71.1°F21.7°C 63.1°F17.3°C 76% 4.0 mph ENE6.4 kmh ENE 10.0 mph16.1 kmh 29.84 in1010.5 mb 0.00 in0.0 mm 0.00 in0.0 mm 0.00 in0.0 mm
06:50 AM 71.4°F21.9°C 63.5°F17.5°C 76% 4.0 mph E6.4 kmh E 10.0 mph16.1 kmh 29.83 in1010.2 mb 0.00 in0.0 mm 0.00 in0.0 mm 0.00 in0.0 mm
06:55 AM 71.4°F21.9°C 63.1°F17.3°C 75% 4.0 mph E6.4 kmh E 9.0 mph14.5 kmh 29.83 in1010.2 mb 0.00 in0.0 mm 0.00 in0.0 mm 0.00 in0.0 mm
07:00 AM 71.2°F21.8°C 62.6°F17.0°C 74% 4.0 mph E6.4 kmh E 9.0 mph14.5 kmh 29.83 in1010.2 mb 0.00 in0.0 mm 0.00 in0.0 mm 0.00 in0.0 mm
07:05 AM 71.6°F22.0°C 63.3°F17.4°C 75% 4.0 mph E6.4 kmh E 9.0 mph14.5 kmh 29.83 in1010.2 mb 0.00 in0.0 mm 0.00 in0.0 mm 0.00 in0.0 mm
07:10 AM 71.4°F21.9°C 62.6°F17.0°C 74% 5.0 mph E8.0 kmh E 10.0 mph16.1 kmh 29.84 in1010.5 mb 0.00 in0.0 mm 0.00 in0.0 mm 0.00 in0.0 mm
07:15 AM 71.4°F21.9°C 62.8°F17.1°C 74% 6.0 mph ENE9.7 kmh ENE 11.0 mph17.7 kmh 29.84 in1010.5 mb 0.00 in0.0 mm 0.00 in0.0 mm 0.00 in0.0 mm
07:20 AM 71.8°F22.1°C 63.1°F17.3°C 74% 5.0 mph E8.0 kmh E 11.0 mph17.7 kmh 29.83 in1010.2 mb 0.00 in0.0 mm 0.00 in0.0 mm 0.00 in0.0 mm
07:25 AM 72.3°F22.4°C 63.9°F17.7°C 75% 4.0 mph E6.4 kmh E 10.0 mph16.1 kmh 29.83 in1010.2 mb 0.00 in0.0 mm 0.00 in0.0 mm 0.00 in0.0 mm
07:30 AM 72.7°F22.6°C 63.9°F17.7°C 74% 3.0 mph E4.8 kmh E 10.0 mph16.1 kmh 29.83 in1010.2 mb 0.00 in0.0 mm 0.00 in0.0 mm 0.00 in0.0 mm
07:35 AM 72.9°F22.7°C 64.0°F17.8°C 74% 4.0 mph ENE6.4 kmh ENE 9.0 mph14.5 kmh 29.83 in1010.2 mb 0.00 in0.0 mm 0.00 in0.0 mm 0.00 in0.0 mm
07:40 AM 73.4°F23.0°C 64.2°F17.9°C 73% 4.0 mph ENE6.4 kmh ENE 9.0 mph14.5 kmh 29.83 in1010.2 mb 0.00 in0.0 mm 0.00 in0.0 mm 0.00 in0.0 mm
07:45 AM 73.9°F23.3°C 63.9°F17.7°C 71% 3.0 mph E4.8 kmh E 7.0 mph11.3 kmh 29.83 in1010.2 mb 0.00 in0.0 mm 0.00 in0.0 mm 0.00 in0.0 mm
07:50 AM 73.9°F23.3°C 64.0°F17.8°C 71% 3.0 mph E4.8 kmh E 8.0 mph12.9 kmh 29.83 in1010.2 mb 0.00 in0.0 mm 0.00 in0.0 mm 0.00 in0.0 mm
07:55 AM 74.1°F23.4°C 64.6°F18.1°C 72% 3.0 mph E4.8 kmh E 8.0 mph12.9 kmh 29.83 in1010.2 mb 0.00 in0.0 mm 0.00 in0.0 mm 0.00 in0.0 mm
08:00 AM 74.8°F23.8°C 64.4°F18.0°C 70% 2.0 mph ENE3.2 kmh ENE 9.0 mph14.5 kmh 29.83 in1010.2 mb 0.00 in0.0 mm 0.00 in0.0 mm 0.00 in0.0 mm
08:05 AM 74.3°F23.5°C 63.5°F17.5°C 69% 3.0 mph ENE4.8 kmh ENE 10.0 mph16.1 kmh 29.83 in1010.2 mb 0.00 in0.0 mm 0.00 in0.0 mm 0.00 in0.0 mm
08:10 AM 74.5°F23.6°C 64.4°F18.0°C 71% 5.0 mph ENE8.0 kmh ENE 10.0 mph16.1 kmh 29.83 in1010.2 mb 0.00 in0.0 mm 0.00 in0.0 mm 0.00 in0.0 mm
08:15 AM 75.0°F23.9°C 64.6°F18.1°C 70% 4.0 mph ENE6.4 kmh ENE 10.0 mph16.1 kmh 29.83 in1010.2 mb 0.00 in0.0 mm 0.00 in0.0 mm 0.00 in0.0 mm
08:20 AM 75.0°F23.9°C 64.2°F17.9°C 69% 3.0 mph E4.8 kmh E 10.0 mph16.1 kmh 29.82 in1009.8 mb 0.00 in0.0 mm 0.00 in0.0 mm 0.00 in0.0 mm
08:25 AM 74.8°F23.8°C 63.7°F17.6°C 68% 5.0 mph ENE8.0 kmh ENE 13.0 mph20.9 kmh 29.82 in1009.8 mb 0.00 in0.0 mm 0.00 in0.0 mm 0.00 in0.0 mm
08:30 AM 75.0°F23.9°C 63.3°F17.4°C 67% 6.0 mph ENE9.7 kmh ENE 13.0 mph20.9 kmh 29.82 in1009.8 mb 0.00 in0.0 mm 0.00 in0.0 mm 0.00 in0.0 mm
08:35 AM 75.4°F24.1°C 63.5°F17.5°C 67% 6.0 mph ENE9.7 kmh ENE 12.0 mph19.3 kmh 29.82 in1009.8 mb 0.00 in0.0 mm 0.00 in0.0 mm 0.00 in0.0 mm
08:40 AM 75.7°F24.3°C 63.7°F17.6°C 66% 6.0 mph ENE9.7 kmh ENE 14.0 mph22.5 kmh 29.83 in1010.2 mb 0.00 in0.0 mm 0.00 in0.0 mm 0.00 in0.0 mm
08:45 AM 75.7°F24.3°C 63.1°F17.3°C 65% 7.0 mph ENE11.3 kmh ENE 16.0 mph25.7 kmh 29.82 in1009.8 mb 0.00 in0.0 mm 0.00 in0.0 mm 0.00 in0.0 mm
08:50 AM 76.5°F24.7°C 63.7°F17.6°C 65% 5.0 mph E8.0 kmh E 16.0 mph25.7 kmh 29.82 in1009.8 mb 0.00 in0.0 mm 0.00 in0.0 mm 0.00 in0.0 mm
08:55 AM 76.6°F24.8°C 63.5°F17.5°C 64% 5.0 mph E8.0 kmh E 11.0 mph17.7 kmh 29.82 in1009.8 mb 0.00 in0.0 mm 0.00 in0.0 mm 0.00 in0.0 mm
09:00 AM 76.8°F24.9°C 63.9°F17.7°C 64% 5.0 mph E8.0 kmh E 13.0 mph20.9 kmh 29.82 in1009.8 mb 0.00 in0.0 mm 0.00 in0.0 mm 0.00 in0.0 mm
09:05 AM 77.2°F25.1°C 62.6°F17.0°C 61% 5.0 mph E8.0 kmh E 13.0 mph20.9 kmh 29.82 in1009.8 mb 0.00 in0.0 mm 0.00 in0.0 mm 0.00 in0.0 mm
09:10 AM 77.0°F25.0°C 62.6°F17.0°C 61% 5.0 mph E8.0 kmh E 14.0 mph22.5 kmh 29.82 in1009.8 mb 0.00 in0.0 mm 0.00 in0.0 mm 0.00 in0.0 mm
09:15 AM 77.4°F25.2°C 63.3°F17.4°C 62% 5.0 mph E8.0 kmh E 14.0 mph22.5 kmh 29.82 in1009.8 mb 0.00 in0.0 mm 0.00 in0.0 mm 0.00 in0.0 mm
09:20 AM 77.5°F25.3°C 63.5°F17.5°C 62% 4.0 mph E6.4 kmh E 11.0 mph17.7 kmh 29.82 in1009.8 mb 0.00 in0.0 mm 0.00 in0.0 mm 0.00 in0.0 mm
09:25 AM 77.9°F25.5°C 64.2°F17.9°C 63% 4.0 mph E6.4 kmh E 10.0 mph16.1 kmh 29.82 in1009.8 mb 0.00 in0.0 mm 0.00 in0.0 mm 0.00 in0.0 mm
09:30 AM 78.4°F25.8°C 63.9°F17.7°C 61% 4.0 mph E6.4 kmh E 10.0 mph16.1 kmh 29.82 in1009.8 mb 0.00 in0.0 mm 0.00 in0.0 mm 0.00 in0.0 mm
09:35 AM 78.6°F25.9°C 63.5°F17.5°C 60% 4.0 mph E6.4 kmh E 12.0 mph19.3 kmh 29.82 in1009.8 mb 0.00 in0.0 mm 0.00 in0.0 mm 0.00 in0.0 mm
09:40 AM 78.8°F26.0°C 63.7°F17.6°C 60% 4.0 mph E6.4 kmh E 12.0 mph19.3 kmh 29.82 in1009.8 mb 0.00 in0.0 mm 0.00 in0.0 mm 0.00 in0.0 mm
09:45 AM 79.3°F26.3°C 63.7°F17.6°C 59% 4.0 mph E6.4 kmh E 10.0 mph16.1 kmh 29.82 in1009.8 mb 0.00 in0.0 mm 0.00 in0.0 mm 0.00 in0.0 mm
09:50 AM 79.9°F26.6°C 63.1°F17.3°C 57% 3.0 mph SE4.8 kmh SE 9.0 mph14.5 kmh 29.82 in1009.8 mb 0.00 in0.0 mm 0.00 in0.0 mm 0.00 in0.0 mm
09:55 AM 79.3°F26.3°C 63.3°F17.4°C 58% 4.0 mph E6.4 kmh E 12.0 mph19.3 kmh 29.82 in1009.8 mb 0.00 in0.0 mm 0.00 in0.0 mm 0.00 in0.0 mm
10:00 AM 79.5°F26.4°C 62.6°F17.0°C 56% 4.0 mph E6.4 kmh E 12.0 mph19.3 kmh 29.82 in1009.8 mb 0.00 in0.0 mm 0.00 in0.0 mm 0.00 in0.0 mm
10:05 AM 79.5°F26.4°C 63.0°F17.2°C 57% 4.0 mph E6.4 kmh E 12.0 mph19.3 kmh 29.82 in1009.8 mb 0.00 in0.0 mm 0.00 in0.0 mm 0.00 in0.0 mm
10:10 AM 80.2°F26.8°C 63.7°F17.6°C 57% 3.0 mph E4.8 kmh E 12.0 mph19.3 kmh 29.82 in1009.8 mb 0.00 in0.0 mm 0.00 in0.0 mm 0.00 in0.0 mm
10:15 AM 80.4°F26.9°C 63.9°F17.7°C 57% 3.0 mph E4.8 kmh E 10.0 mph16.1 kmh 29.82 in1009.8 mb 0.00 in0.0 mm 0.00 in0.0 mm 0.00 in0.0 mm
10:20 AM 80.2°F26.8°C 63.5°F17.5°C 57% 4.0 mph E6.4 kmh E 10.0 mph16.1 kmh 29.82 in1009.8 mb 0.00 in0.0 mm 0.00 in0.0 mm 0.00 in0.0 mm
10:25 AM 80.4°F26.9°C 62.8°F17.1°C 55% 4.0 mph E6.4 kmh E 10.0 mph16.1 kmh 29.82 in1009.8 mb 0.00 in0.0 mm 0.00 in0.0 mm 0.00 in0.0 mm
10:30 AM 80.4°F26.9°C 63.3°F17.4°C 56% 4.0 mph E6.4 kmh E 10.0 mph16.1 kmh 29.82 in1009.8 mb 0.00 in0.0 mm 0.00 in0.0 mm 0.00 in0.0 mm
10:35 AM 79.7°F26.5°C 63.1°F17.3°C 57% 5.0 mph ENE8.0 kmh ENE 12.0 mph19.3 kmh 29.82 in1009.8 mb 0.00 in0.0 mm 0.00 in0.0 mm 0.00 in0.0 mm
10:40 AM 80.2°F26.8°C 64.0°F17.8°C 58% 5.0 mph ENE8.0 kmh ENE 12.0 mph19.3 kmh 29.82 in1009.8 mb 0.00 in0.0 mm 0.00 in0.0 mm 0.00 in0.0 mm
10:45 AM 79.3°F26.3°C 63.3°F17.4°C 58% 4.0 mph E6.4 kmh E 10.0 mph16.1 kmh 29.82 in1009.8 mb 0.00 in0.0 mm 0.00 in0.0 mm 0.00 in0.0 mm
10:50 AM 78.6°F25.9°C 63.5°F17.5°C 60% 5.0 mph ENE8.0 kmh ENE 11.0 mph17.7 kmh 29.82 in1009.8 mb 0.00 in0.0 mm 0.00 in0.0 mm 0.00 in0.0 mm
10:55 AM 78.1°F25.6°C 63.5°F17.5°C 61% 6.0 mph ENE9.7 kmh ENE 12.0 mph19.3 kmh 29.82 in1009.8 mb 0.00 in0.0 mm 0.00 in0.0 mm 0.00 in0.0 mm
11:00 AM 77.9°F25.5°C 63.3°F17.4°C 61% 6.0 mph ENE9.7 kmh ENE 12.0 mph19.3 kmh 29.82 in1009.8 mb 0.00 in0.0 mm 0.00 in0.0 mm 0.00 in0.0 mm
11:05 AM 77.4°F25.2°C 62.8°F17.1°C 61% 6.0 mph ENE9.7 kmh ENE 12.0 mph19.3 kmh 29.82 in1009.8 mb 0.00 in0.0 mm 0.00 in0.0 mm 0.00 in0.0 mm
11:10 AM 77.4°F25.2°C 63.7°F17.6°C 63% 6.0 mph ENE9.7 kmh ENE 11.0 mph17.7 kmh 29.82 in1009.8 mb 0.00 in0.0 mm 0.00 in0.0 mm 0.00 in0.0 mm
11:15 AM 77.7°F25.4°C 63.7°F17.6°C 62% 6.0 mph ENE9.7 kmh ENE 13.0 mph20.9 kmh 29.82 in1009.8 mb 0.00 in0.0 mm 0.00 in0.0 mm 0.00 in0.0 mm
11:20 AM 78.3°F25.7°C 64.2°F17.9°C 62% 6.0 mph ENE9.7 kmh ENE 15.0 mph24.1 kmh 29.82 in1009.8 mb 0.00 in0.0 mm 0.00 in0.0 mm 0.00 in0.0 mm
11:25 AM 78.4°F25.8°C 63.9°F17.7°C 61% 5.0 mph ENE8.0 kmh ENE 15.0 mph24.1 kmh 29.82 in1009.8 mb 0.00 in0.0 mm 0.00 in0.0 mm 0.00 in0.0 mm
11:30 AM 78.3°F25.7°C 63.7°F17.6°C 61% 5.0 mph ENE8.0 kmh ENE 9.0 mph14.5 kmh 29.82 in1009.8 mb 0.00 in0.0 mm 0.00 in0.0 mm 0.00 in0.0 mm
11:35 AM 78.4°F25.8°C 63.5°F17.5°C 60% 5.0 mph ENE8.0 kmh ENE 15.0 mph24.1 kmh 29.82 in1009.8 mb 0.00 in0.0 mm 0.00 in0.0 mm 0.00 in0.0 mm
11:40 AM 78.8°F26.0°C 62.8°F17.1°C 58% 6.0 mph ENE9.7 kmh ENE 15.0 mph24.1 kmh 29.82 in1009.8 mb 0.00 in0.0 mm 0.00 in0.0 mm 0.00 in0.0 mm
11:45 AM 78.6°F25.9°C 62.6°F17.0°C 58% 7.0 mph ENE11.3 kmh ENE 13.0 mph20.9 kmh 29.81 in1009.5 mb 0.00 in0.0 mm 0.00 in0.0 mm 0.00 in0.0 mm
11:50 AM 78.4°F25.8°C 63.3°F17.4°C 60% 6.0 mph ENE9.7 kmh ENE 13.0 mph20.9 kmh 29.81 in1009.5 mb 0.00 in0.0 mm 0.00 in0.0 mm 0.00 in0.0 mm
11:55 AM 78.3°F25.7°C 62.8°F17.1°C 59% 5.0 mph ENE8.0 kmh ENE 14.0 mph22.5 kmh 29.81 in1009.5 mb 0.00 in0.0 mm 0.00 in0.0 mm 0.00 in0.0 mm
12:00 PM 77.9°F25.5°C 63.3°F17.4°C 61% 6.0 mph ENE9.7 kmh ENE 14.0 mph22.5 kmh 29.81 in1009.5 mb 0.00 in0.0 mm 0.00 in0.0 mm 0.00 in0.0 mm
12:05 PM 77.9°F25.5°C 63.9°F17.7°C 62% 5.0 mph E8.0 kmh E 10.0 mph16.1 kmh 29.81 in1009.5 mb 0.00 in0.0 mm 0.00 in0.0 mm 0.00 in0.0 mm
12:10 PM 78.1°F25.6°C 63.9°F17.7°C 62% 2.0 mph E3.2 kmh E 9.0 mph14.5 kmh 29.80 in1009.1 mb 0.00 in0.0 mm 0.00 in0.0 mm 0.00 in0.0 mm
12:15 PM 78.4°F25.8°C 63.9°F17.7°C 61% 2.0 mph E3.2 kmh E 12.0 mph19.3 kmh 29.80 in1009.1 mb 0.00 in0.0 mm 0.00 in0.0 mm 0.00 in0.0 mm
12:20 PM 78.3°F25.7°C 63.7°F17.6°C 61% 6.0 mph E9.7 kmh E 12.0 mph19.3 kmh 29.80 in1009.1 mb 0.00 in0.0 mm 0.00 in0.0 mm 0.00 in0.0 mm
12:25 PM 77.7°F25.4°C 63.1°F17.3°C 61% 8.0 mph ENE12.9 kmh ENE 16.0 mph25.7 kmh 29.80 in1009.1 mb 0.00 in0.0 mm 0.00 in0.0 mm 0.00 in0.0 mm
12:30 PM 77.7°F25.4°C 64.0°F17.8°C 63% 7.0 mph ENE11.3 kmh ENE 16.0 mph25.7 kmh 29.80 in1009.1 mb 0.00 in0.0 mm 0.00 in0.0 mm 0.00 in0.0 mm
12:35 PM 77.9°F25.5°C 64.2°F17.9°C 63% 4.0 mph ENE6.4 kmh ENE 13.0 mph20.9 kmh 29.80 in1009.1 mb 0.00 in0.0 mm 0.00 in0.0 mm 0.00 in0.0 mm
12:40 PM 79.0°F26.1°C 65.3°F18.5°C 63% 4.0 mph ENE6.4 kmh ENE 11.0 mph17.7 kmh 29.80 in1009.1 mb 0.00 in0.0 mm 0.00 in0.0 mm 0.00 in0.0 mm
12:45 PM 79.5°F26.4°C 64.6°F18.1°C 60% 6.0 mph ENE9.7 kmh ENE 15.0 mph24.1 kmh 29.80 in1009.1 mb 0.00 in0.0 mm 0.00 in0.0 mm 0.00 in0.0 mm
12:50 PM 79.5°F26.4°C 62.6°F17.0°C 56% 7.0 mph ENE11.3 kmh ENE 16.0 mph25.7 kmh 29.80 in1009.1 mb 0.00 in0.0 mm 0.00 in0.0 mm 0.00 in0.0 mm
12:55 PM 79.9°F26.6°C 63.1°F17.3°C 57% 7.0 mph ENE11.3 kmh ENE 16.0 mph25.7 kmh 29.80 in1009.1 mb 0.00 in0.0 mm 0.00 in0.0 mm 0.00 in0.0 mm
01:00 PM 80.1°F26.7°C 63.0°F17.2°C 56% 5.0 mph ENE8.0 kmh ENE 15.0 mph24.1 kmh 29.80 in1009.1 mb 0.00 in0.0 mm 0.00 in0.0 mm 0.00 in0.0 mm
01:05 PM 80.1°F26.7°C 64.4°F18.0°C 59% 5.0 mph E8.0 kmh E 12.0 mph19.3 kmh 29.79 in1008.8 mb 0.00 in0.0 mm 0.00 in0.0 mm 0.00 in0.0 mm
01:10 PM 80.1°F26.7°C 64.4°F18.0°C 59% 5.0 mph ENE8.0 kmh ENE 12.0 mph19.3 kmh 29.79 in1008.8 mb 0.00 in0.0 mm 0.00 in0.0 mm 0.00 in0.0 mm
01:15 PM 80.4°F26.9°C 64.4°F18.0°C 58% 4.0 mph ENE6.4 kmh ENE 12.0 mph19.3 kmh 29.79 in1008.8 mb 0.00 in0.0 mm 0.00 in0.0 mm 0.00 in0.0 mm
01:20 PM 80.2°F26.8°C 64.6°F18.1°C 59% 6.0 mph ENE9.7 kmh ENE 16.0 mph25.7 kmh 29.79 in1008.8 mb 0.00 in0.0 mm 0.00 in0.0 mm 0.00 in0.0 mm
01:25 PM 80.1°F26.7°C 64.9°F18.3°C 60% 7.0 mph ENE11.3 kmh ENE 16.0 mph25.7 kmh 29.79 in1008.8 mb 0.00 in0.0 mm 0.00 in0.0 mm 0.00 in0.0 mm
01:30 PM 79.9°F26.6°C 63.7°F17.6°C 58% 7.0 mph ENE11.3 kmh ENE 15.0 mph24.1 kmh 29.79 in1008.8 mb 0.00 in0.0 mm 0.00 in0.0 mm 0.00 in0.0 mm
01:35 PM 79.2°F26.2°C 63.7°F17.6°C 59% 8.0 mph ENE12.9 kmh ENE 15.0 mph24.1 kmh 29.79 in1008.8 mb 0.00 in0.0 mm 0.00 in0.0 mm 0.00 in0.0 mm
01:40 PM 79.2°F26.2°C 64.0°F17.8°C 60% 7.0 mph ENE11.3 kmh ENE 15.0 mph24.1 kmh 29.78 in1008.5 mb 0.00 in0.0 mm 0.00 in0.0 mm 0.00 in0.0 mm
01:45 PM 79.3°F26.3°C 64.8°F18.2°C 61% 5.0 mph ENE8.0 kmh ENE 10.0 mph16.1 kmh 29.78 in1008.5 mb 0.00 in0.0 mm 0.00 in0.0 mm 0.00 in0.0 mm
01:50 PM 79.7°F26.5°C 63.7°F17.6°C 58% 5.0 mph ENE8.0 kmh ENE 15.0 mph24.1 kmh 29.78 in1008.5 mb 0.00 in0.0 mm 0.00 in0.0 mm 0.00 in0.0 mm
01:55 PM 78.8°F26.0°C 62.2°F16.8°C 57% 6.0 mph ENE9.7 kmh ENE 16.0 mph25.7 kmh 29.78 in1008.5 mb 0.00 in0.0 mm 0.00 in0.0 mm 0.00 in0.0 mm
02:00 PM 78.6°F25.9°C 63.1°F17.3°C 59% 7.0 mph ENE11.3 kmh ENE 16.0 mph25.7 kmh 29.78 in1008.5 mb 0.00 in0.0 mm 0.00 in0.0 mm 0.00 in0.0 mm
02:05 PM 78.1°F25.6°C 63.9°F17.7°C 62% 6.0 mph ENE9.7 kmh ENE 12.0 mph19.3 kmh 29.78 in1008.5 mb 0.00 in0.0 mm 0.00 in0.0 mm 0.00 in0.0 mm
02:10 PM 77.5°F25.3°C 63.5°F17.5°C 62% 7.0 mph ENE11.3 kmh ENE 19.0 mph30.6 kmh 29.78 in1008.5 mb 0.00 in0.0 mm 0.00 in0.0 mm 0.00 in0.0 mm
02:15 PM 76.8°F24.9°C 63.9°F17.7°C 64% 9.0 mph ENE14.5 kmh ENE 19.0 mph30.6 kmh 29.78 in1008.5 mb 0.00 in0.0 mm 0.00 in0.0 mm 0.00 in0.0 mm
02:20 PM 76.6°F24.8°C 64.4°F18.0°C 66% 8.0 mph ENE12.9 kmh ENE 19.0 mph30.6 kmh 29.78 in1008.5 mb 0.00 in0.0 mm 0.00 in0.0 mm 0.00 in0.0 mm
02:25 PM 76.5°F24.7°C 63.9°F17.7°C 65% 6.0 mph ENE9.7 kmh ENE 14.0 mph22.5 kmh 29.77 in1008.1 mb 0.00 in0.0 mm 0.00 in0.0 mm 0.00 in0.0 mm
02:30 PM 77.2°F25.1°C 64.0°F17.8°C 64% 8.0 mph ENE12.9 kmh ENE 19.0 mph30.6 kmh 29.78 in1008.5 mb 0.00 in0.0 mm 0.00 in0.0 mm 0.00 in0.0 mm
02:35 PM 77.4°F25.2°C 63.0°F17.2°C 61% 9.0 mph ENE14.5 kmh ENE 19.0 mph30.6 kmh 29.78 in1008.5 mb 0.00 in0.0 mm 0.00 in0.0 mm 0.00 in0.0 mm
02:40 PM 77.0°F25.0°C 63.5°F17.5°C 63% 8.0 mph ENE12.9 kmh ENE 18.0 mph29.0 kmh 29.78 in1008.5 mb 0.00 in0.0 mm 0.00 in0.0 mm 0.00 in0.0 mm
02:45 PM 76.8°F24.9°C 63.3°F17.4°C 63% 7.0 mph ENE11.3 kmh ENE 12.0 mph19.3 kmh 29.78 in1008.5 mb 0.00 in0.0 mm 0.00 in0.0 mm 0.00 in0.0 mm
02:50 PM 77.2°F25.1°C 63.5°F17.5°C 63% 6.0 mph ENE9.7 kmh ENE 12.0 mph19.3 kmh 29.78 in1008.5 mb 0.00 in0.0 mm 0.00 in0.0 mm 0.00 in0.0 mm
02:55 PM 77.9°F25.5°C 63.9°F17.7°C 62% 7.0 mph ENE11.3 kmh ENE 12.0 mph19.3 kmh 29.77 in1008.1 mb 0.00 in0.0 mm 0.00 in0.0 mm 0.00 in0.0 mm
03:00 PM 77.9°F25.5°C 63.3°F17.4°C 61% 7.0 mph ENE11.3 kmh ENE 12.0 mph19.3 kmh 29.77 in1008.1 mb 0.00 in0.0 mm 0.00 in0.0 mm 0.00 in0.0 mm
03:05 PM 78.3°F25.7°C 63.7°F17.6°C 61% 6.0 mph ENE9.7 kmh ENE 13.0 mph20.9 kmh 29.77 in1008.1 mb 0.00 in0.0 mm 0.00 in0.0 mm 0.00 in0.0 mm
03:10 PM 78.1°F25.6°C 63.9°F17.7°C 62% 6.0 mph ENE9.7 kmh ENE 14.0 mph22.5 kmh 29.78 in1008.5 mb 0.00 in0.0 mm 0.00 in0.0 mm 0.00 in0.0 mm
03:15 PM 77.5°F25.3°C 63.1°F17.3°C 61% 7.0 mph ENE11.3 kmh ENE 15.0 mph24.1 kmh 29.78 in1008.5 mb 0.00 in0.0 mm 0.00 in0.0 mm 0.00 in0.0 mm
03:20 PM 77.4°F25.2°C 63.0°F17.2°C 61% 7.0 mph ENE11.3 kmh ENE 15.0 mph24.1 kmh 29.78 in1008.5 mb 0.00 in0.0 mm 0.00 in0.0 mm 0.00 in0.0 mm
03:25 PM 77.4°F25.2°C 63.0°F17.2°C 61% 6.0 mph ENE9.7 kmh ENE 13.0 mph20.9 kmh 29.78 in1008.5 mb 0.00 in0.0 mm 0.00 in0.0 mm 0.00 in0.0 mm
03:30 PM 77.5°F25.3°C 62.6°F17.0°C 60% 6.0 mph ENE9.7 kmh ENE 13.0 mph20.9 kmh 29.77 in1008.1 mb 0.00 in0.0 mm 0.00 in0.0 mm 0.00 in0.0 mm
03:35 PM 77.7°F25.4°C 63.1°F17.3°C 61% 6.0 mph ENE9.7 kmh ENE 12.0 mph19.3 kmh 29.77 in1008.1 mb 0.00 in0.0 mm 0.00 in0.0 mm 0.00 in0.0 mm
03:40 PM 78.4°F25.8°C 63.9°F17.7°C 61% 4.0 mph ENE6.4 kmh ENE 10.0 mph16.1 kmh 29.77 in1008.1 mb 0.00 in0.0 mm 0.00 in0.0 mm 0.00 in0.0 mm
03:45 PM 78.8°F26.0°C 63.3°F17.4°C 59% 5.0 mph ENE8.0 kmh ENE 12.0 mph19.3 kmh 29.77 in1008.1 mb 0.00 in0.0 mm 0.00 in0.0 mm 0.00 in0.0 mm
03:50 PM 78.4°F25.8°C 63.0°F17.2°C 59% 7.0 mph ENE11.3 kmh ENE 16.0 mph25.7 kmh 29.77 in1008.1 mb 0.00 in0.0 mm 0.00 in0.0 mm 0.00 in0.0 mm
03:55 PM 78.1°F25.6°C 63.0°F17.2°C 60% 6.0 mph ENE9.7 kmh ENE 16.0 mph25.7 kmh 29.77 in1008.1 mb 0.00 in0.0 mm 0.00 in0.0 mm 0.00 in0.0 mm
04:00 PM 78.3°F25.7°C 62.8°F17.1°C 59% 5.0 mph ENE8.0 kmh ENE 17.0 mph27.4 kmh 29.77 in1008.1 mb 0.00 in0.0 mm 0.00 in0.0 mm 0.00 in0.0 mm
04:05 PM 78.1°F25.6°C 62.6°F17.0°C 59% 7.0 mph ENE11.3 kmh ENE 17.0 mph27.4 kmh 29.77 in1008.1 mb 0.00 in0.0 mm 0.00 in0.0 mm 0.00 in0.0 mm
04:10 PM 78.4°F25.8°C 63.0°F17.2°C 59% 7.0 mph ENE11.3 kmh ENE 15.0 mph24.1 kmh 29.77 in1008.1 mb 0.00 in0.0 mm 0.00 in0.0 mm 0.00 in0.0 mm
04:15 PM 78.4°F25.8°C 63.0°F17.2°C 59% 6.0 mph ENE9.7 kmh ENE 14.0 mph22.5 kmh 29.77 in1008.1 mb 0.00 in0.0 mm 0.00 in0.0 mm 0.00 in0.0 mm
04:20 PM 78.4°F25.8°C 62.4°F16.9°C 58% 7.0 mph ENE11.3 kmh ENE 14.0 mph22.5 kmh 29.77 in1008.1 mb 0.00 in0.0 mm 0.00 in0.0 mm 0.00 in0.0 mm
04:25 PM 78.6°F25.9°C 62.6°F17.0°C 58% 7.0 mph ENE11.3 kmh ENE 14.0 mph22.5 kmh 29.77 in1008.1 mb 0.00 in0.0 mm 0.00 in0.0 mm 0.00 in0.0 mm
04:30 PM 78.6°F25.9°C 63.1°F17.3°C 59% 6.0 mph ENE9.7 kmh ENE 14.0 mph22.5 kmh 29.77 in1008.1 mb 0.00 in0.0 mm 0.00 in0.0 mm 0.00 in0.0 mm
04:35 PM 78.6°F25.9°C 63.5°F17.5°C 60% 7.0 mph ENE11.3 kmh ENE 14.0 mph22.5 kmh 29.77 in1008.1 mb 0.00 in0.0 mm 0.00 in0.0 mm 0.00 in0.0 mm
04:40 PM 78.6°F25.9°C 63.1°F17.3°C 59% 7.0 mph ENE11.3 kmh ENE 14.0 mph22.5 kmh 29.77 in1008.1 mb 0.00 in0.0 mm 0.00 in0.0 mm 0.00 in0.0 mm
04:45 PM 78.3°F25.7°C 63.3°F17.4°C 60% 5.0 mph E8.0 kmh E 13.0 mph20.9 kmh 29.77 in1008.1 mb 0.00 in0.0 mm 0.00 in0.0 mm 0.00 in0.0 mm
04:50 PM 78.3°F25.7°C 63.1°F17.3°C 60% 6.0 mph ENE9.7 kmh ENE 17.0 mph27.4 kmh 29.77 in1008.1 mb 0.00 in0.0 mm 0.00 in0.0 mm 0.00 in0.0 mm
04:55 PM 77.7°F25.4°C 62.8°F17.1°C 60% 7.0 mph ENE11.3 kmh ENE 17.0 mph27.4 kmh 29.78 in1008.5 mb 0.00 in0.0 mm 0.00 in0.0 mm 0.00 in0.0 mm
05:00 PM 77.2°F25.1°C 62.8°F17.1°C 61% 7.0 mph ENE11.3 kmh ENE 15.0 mph24.1 kmh 29.78 in1008.5 mb 0.00 in0.0 mm 0.00 in0.0 mm 0.00 in0.0 mm
05:05 PM 76.8°F24.9°C 63.0°F17.2°C 62% 7.0 mph ENE11.3 kmh ENE 14.0 mph22.5 kmh 29.78 in1008.5 mb 0.00 in0.0 mm 0.00 in0.0 mm 0.00 in0.0 mm
05:10 PM 76.8°F24.9°C 63.0°F17.2°C 62% 7.0 mph ENE11.3 kmh ENE 14.0 mph22.5 kmh 29.78 in1008.5 mb 0.00 in0.0 mm 0.00 in0.0 mm 0.00 in0.0 mm
05:15 PM 76.5°F24.7°C 63.0°F17.2°C 63% 6.0 mph ENE9.7 kmh ENE 14.0 mph22.5 kmh 29.78 in1008.5 mb 0.00 in0.0 mm 0.00 in0.0 mm 0.00 in0.0 mm
05:20 PM 75.9°F24.4°C 62.4°F16.9°C 63% 5.0 mph E8.0 kmh E 13.0 mph20.9 kmh 29.78 in1008.5 mb 0.00 in0.0 mm 0.00 in0.0 mm 0.00 in0.0 mm
05:25 PM 75.9°F24.4°C 62.8°F17.1°C 64% 6.0 mph E9.7 kmh E 12.0 mph19.3 kmh 29.78 in1008.5 mb 0.00 in0.0 mm 0.00 in0.0 mm 0.00 in0.0 mm
05:30 PM 76.1°F24.5°C 63.0°F17.2°C 64% 7.0 mph E11.3 kmh E 12.0 mph19.3 kmh 29.78 in1008.5 mb 0.00 in0.0 mm 0.00 in0.0 mm 0.00 in0.0 mm
05:35 PM 76.3°F24.6°C 62.6°F17.0°C 63% 7.0 mph E11.3 kmh E 13.0 mph20.9 kmh 29.78 in1008.5 mb 0.00 in0.0 mm 0.00 in0.0 mm 0.00 in0.0 mm
05:40 PM 76.3°F24.6°C 62.8°F17.1°C 63% 6.0 mph E9.7 kmh E 13.0 mph20.9 kmh 29.78 in1008.5 mb 0.00 in0.0 mm 0.00 in0.0 mm 0.00 in0.0 mm
05:45 PM 76.3°F24.6°C 62.6°F17.0°C 63% 6.0 mph ENE9.7 kmh ENE 12.0 mph19.3 kmh 29.77 in1008.1 mb 0.00 in0.0 mm 0.00 in0.0 mm 0.00 in0.0 mm
05:50 PM 76.3°F24.6°C 62.8°F17.1°C 63% 6.0 mph ENE9.7 kmh ENE 11.0 mph17.7 kmh 29.77 in1008.1 mb 0.00 in0.0 mm 0.00 in0.0 mm 0.00 in0.0 mm
05:55 PM 76.3°F24.6°C 62.8°F17.1°C 63% 5.0 mph ENE8.0 kmh ENE 11.0 mph17.7 kmh 29.77 in1008.1 mb 0.00 in0.0 mm 0.00 in0.0 mm 0.00 in0.0 mm
06:00 PM 76.3°F24.6°C 62.6°F17.0°C 63% 6.0 mph ENE9.7 kmh ENE 15.0 mph24.1 kmh 29.77 in1008.1 mb 0.00 in0.0 mm 0.00 in0.0 mm 0.00 in0.0 mm
06:05 PM 76.1°F24.5°C 62.6°F17.0°C 63% 7.0 mph ENE11.3 kmh ENE 15.0 mph24.1 kmh 29.77 in1008.1 mb 0.00 in0.0 mm 0.00 in0.0 mm 0.00 in0.0 mm
06:10 PM 75.9°F24.4°C 62.8°F17.1°C 64% 7.0 mph ENE11.3 kmh ENE 13.0 mph20.9 kmh 29.78 in1008.5 mb 0.00 in0.0 mm 0.00 in0.0 mm 0.00 in0.0 mm
06:15 PM 75.9°F24.4°C 62.8°F17.1°C 64% 6.0 mph ENE9.7 kmh ENE 12.0 mph19.3 kmh 29.78 in1008.5 mb 0.00 in0.0 mm 0.00 in0.0 mm 0.00 in0.0 mm
06:20 PM 75.7°F24.3°C 62.2°F16.8°C 63% 6.0 mph ENE9.7 kmh ENE 14.0 mph22.5 kmh 29.78 in1008.5 mb 0.00 in0.0 mm 0.00 in0.0 mm 0.00 in0.0 mm
06:25 PM 75.7°F24.3°C 61.7°F16.5°C 62% 7.0 mph ENE11.3 kmh ENE 17.0 mph27.4 kmh 29.77 in1008.1 mb 0.00 in0.0 mm 0.00 in0.0 mm 0.00 in0.0 mm
06:30 PM 75.6°F24.2°C 61.5°F16.4°C 62% 9.0 mph ENE14.5 kmh ENE 18.0 mph29.0 kmh 29.78 in1008.5 mb 0.00 in0.0 mm 0.00 in0.0 mm 0.00 in0.0 mm
06:35 PM 75.4°F24.1°C 61.3°F16.3°C 62% 8.0 mph ENE12.9 kmh ENE 18.0 mph29.0 kmh 29.77 in1008.1 mb 0.00 in0.0 mm 0.00 in0.0 mm 0.00 in0.0 mm
06:40 PM 75.2°F24.0°C 61.3°F16.3°C 62% 6.0 mph ENE9.7 kmh ENE 16.0 mph25.7 kmh 29.77 in1008.1 mb 0.00 in0.0 mm 0.00 in0.0 mm 0.00 in0.0 mm
06:45 PM 75.0°F23.9°C 61.7°F16.5°C 63% 6.0 mph ENE9.7 kmh ENE 13.0 mph20.9 kmh 29.77 in1008.1 mb 0.00 in0.0 mm 0.00 in0.0 mm 0.00 in0.0 mm
06:50 PM 74.8°F23.8°C 61.5°F16.4°C 63% 6.0 mph ENE9.7 kmh ENE 14.0 mph22.5 kmh 29.77 in1008.1 mb 0.00 in0.0 mm 0.00 in0.0 mm 0.00 in0.0 mm
06:55 PM 74.7°F23.7°C 61.7°F16.5°C 64% 7.0 mph ENE11.3 kmh ENE 14.0 mph22.5 kmh 29.78 in1008.5 mb 0.00 in0.0 mm 0.00 in0.0 mm 0.00 in0.0 mm
07:00 PM 74.5°F23.6°C 61.9°F16.6°C 65% 6.0 mph E9.7 kmh E 12.0 mph19.3 kmh 29.77 in1008.1 mb 0.00 in0.0 mm 0.00 in0.0 mm 0.00 in0.0 mm
07:05 PM 74.5°F23.6°C 62.2°F16.8°C 66% 5.0 mph E8.0 kmh E 10.0 mph16.1 kmh 29.77 in1008.1 mb 0.00 in0.0 mm 0.00 in0.0 mm 0.00 in0.0 mm
07:10 PM 74.1°F23.4°C 62.6°F17.0°C 67% 5.0 mph ENE8.0 kmh ENE 12.0 mph19.3 kmh 29.77 in1008.1 mb 0.00 in0.0 mm 0.00 in0.0 mm 0.00 in0.0 mm
07:15 PM 73.9°F23.3°C 62.4°F16.9°C 67% 6.0 mph ENE9.7 kmh ENE 16.0 mph25.7 kmh 29.78 in1008.5 mb 0.00 in0.0 mm 0.00 in0.0 mm 0.00 in0.0 mm
07:20 PM 73.9°F23.3°C 62.4°F16.9°C 67% 7.0 mph ENE11.3 kmh ENE 16.0 mph25.7 kmh 29.78 in1008.5 mb 0.00 in0.0 mm 0.00 in0.0 mm 0.00 in0.0 mm
07:25 PM 73.8°F23.2°C 62.6°F17.0°C 68% 6.0 mph ENE9.7 kmh ENE 13.0 mph20.9 kmh 29.77 in1008.1 mb 0.00 in0.0 mm 0.00 in0.0 mm 0.00 in0.0 mm
07:30 PM 73.6°F23.1°C 61.9°F16.6°C 67% 6.0 mph ENE9.7 kmh ENE 10.0 mph16.1 kmh 29.77 in1008.1 mb 0.00 in0.0 mm 0.00 in0.0 mm 0.00 in0.0 mm
07:35 PM 73.6°F23.1°C 61.5°F16.4°C 66% 7.0 mph ENE11.3 kmh ENE 16.0 mph25.7 kmh 29.78 in1008.5 mb 0.00 in0.0 mm 0.00 in0.0 mm 0.00 in0.0 mm
07:40 PM 73.2°F22.9°C 61.3°F16.3°C 66% 6.0 mph E9.7 kmh E 16.0 mph25.7 kmh 29.78 in1008.5 mb 0.00 in0.0 mm 0.00 in0.0 mm 0.00 in0.0 mm
07:45 PM 73.0°F22.8°C 61.5°F16.4°C 67% 6.0 mph ENE9.7 kmh ENE 15.0 mph24.1 kmh 29.78 in1008.5 mb 0.00 in0.0 mm 0.00 in0.0 mm 0.00 in0.0 mm
07:50 PM 72.9°F22.7°C 61.3°F16.3°C 67% 5.0 mph ENE8.0 kmh ENE 15.0 mph24.1 kmh 29.78 in1008.5 mb 0.00 in0.0 mm 0.00 in0.0 mm 0.00 in0.0 mm
07:55 PM 72.7°F22.6°C 61.5°F16.4°C 68% 5.0 mph E8.0 kmh E 11.0 mph17.7 kmh 29.78 in1008.5 mb 0.00 in0.0 mm 0.00 in0.0 mm 0.00 in0.0 mm
08:00 PM 72.5°F22.5°C 61.3°F16.3°C 68% 5.0 mph E8.0 kmh E 11.0 mph17.7 kmh 29.78 in1008.5 mb 0.00 in0.0 mm 0.00 in0.0 mm 0.00 in0.0 mm
08:10 PM 72.3°F22.4°C 61.5°F16.4°C 69% 5.0 mph ENE8.0 kmh ENE 10.0 mph16.1 kmh 29.79 in1008.8 mb 0.00 in0.0 mm 0.00 in0.0 mm 0.00 in0.0 mm
08:15 PM 72.1°F22.3°C 61.5°F16.4°C 69% 5.0 mph ENE8.0 kmh ENE 10.0 mph16.1 kmh 29.79 in1008.8 mb 0.00 in0.0 mm 0.00 in0.0 mm 0.00 in0.0 mm
08:20 PM 72.1°F22.3°C 61.3°F16.3°C 69% 5.0 mph E8.0 kmh E 10.0 mph16.1 kmh 29.79 in1008.8 mb 0.00 in0.0 mm 0.00 in0.0 mm 0.00 in0.0 mm
08:25 PM 72.0°F22.2°C 61.5°F16.4°C 70% 4.0 mph ENE6.4 kmh ENE 10.0 mph16.1 kmh 29.79 in1008.8 mb 0.00 in0.0 mm 0.00 in0.0 mm 0.00 in0.0 mm
08:30 PM 71.8°F22.1°C 61.3°F16.3°C 70% 4.0 mph E6.4 kmh E 9.0 mph14.5 kmh 29.79 in1008.8 mb 0.00 in0.0 mm 0.00 in0.0 mm 0.00 in0.0 mm
08:35 PM 71.4°F21.9°C 61.5°F16.4°C 71% 4.0 mph E6.4 kmh E 9.0 mph14.5 kmh 29.79 in1008.8 mb 0.00 in0.0 mm 0.00 in0.0 mm 0.00 in0.0 mm
08:40 PM 71.1°F21.7°C 61.2°F16.2°C 71% 2.0 mph E3.2 kmh E 5.0 mph8.0 kmh 29.79 in1008.8 mb 0.00 in0.0 mm 0.00 in0.0 mm 0.00 in0.0 mm
08:45 PM 70.7°F21.5°C 61.2°F16.2°C 72% Calm Calm 4.0 mph6.4 kmh 29.80 in1009.1 mb 0.00 in0.0 mm 0.00 in0.0 mm 0.00 in0.0 mm
08:50 PM 70.5°F21.4°C 61.5°F16.4°C 73% 1.0 mph E1.6 kmh E 6.0 mph9.7 kmh 29.79 in1008.8 mb 0.00 in0.0 mm 0.00 in0.0 mm 0.00 in0.0 mm
08:55 PM 70.5°F21.4°C 61.3°F16.3°C 73% 2.0 mph ENE3.2 kmh ENE 6.0 mph9.7 kmh 29.79 in1008.8 mb 0.00 in0.0 mm 0.00 in0.0 mm 0.00 in0.0 mm
09:00 PM 70.3°F21.3°C 61.3°F16.3°C 73% 2.0 mph ENE3.2 kmh ENE 5.0 mph8.0 kmh 29.79 in1008.8 mb 0.00 in0.0 mm 0.00 in0.0 mm 0.00 in0.0 mm
09:05 PM 70.2°F21.2°C 61.3°F16.3°C 74% 1.0 mph ENE1.6 kmh ENE 5.0 mph8.0 kmh 29.80 in1009.1 mb 0.00 in0.0 mm 0.00 in0.0 mm 0.00 in0.0 mm
09:10 PM 70.0°F21.1°C 61.2°F16.2°C 74% 1.0 mph E1.6 kmh E 3.0 mph4.8 kmh 29.80 in1009.1 mb 0.00 in0.0 mm 0.00 in0.0 mm 0.00 in0.0 mm
09:15 PM 69.6°F20.9°C 61.3°F16.3°C 75% 1.0 mph E1.6 kmh E 3.0 mph4.8 kmh 29.80 in1009.1 mb 0.00 in0.0 mm 0.00 in0.0 mm 0.00 in0.0 mm
09:20 PM 69.3°F20.7°C 61.3°F16.3°C 76% 1.0 mph E1.6 kmh E 3.0 mph4.8 kmh 29.80 in1009.1 mb 0.00 in0.0 mm 0.00 in0.0 mm 0.00 in0.0 mm
09:25 PM 69.3°F20.7°C 61.3°F16.3°C 76% 1.0 mph E1.6 kmh E 5.0 mph8.0 kmh 29.80 in1009.1 mb 0.00 in0.0 mm 0.00 in0.0 mm 0.00 in0.0 mm
09:30 PM 69.1°F20.6°C 61.2°F16.2°C 76% 2.0 mph E3.2 kmh E 5.0 mph8.0 kmh 29.80 in1009.1 mb 0.00 in0.0 mm 0.00 in0.0 mm 0.00 in0.0 mm
09:35 PM 68.7°F20.4°C 61.3°F16.3°C 77% 2.0 mph E3.2 kmh E 5.0 mph8.0 kmh 29.80 in1009.1 mb 0.00 in0.0 mm 0.00 in0.0 mm 0.00 in0.0 mm
09:40 PM 68.7°F20.4°C 61.3°F16.3°C 77% 2.0 mph E3.2 kmh E 5.0 mph8.0 kmh 29.80 in1009.1 mb 0.00 in0.0 mm 0.00 in0.0 mm 0.00 in0.0 mm
09:45 PM 68.5°F20.3°C 61.2°F16.2°C 77% 2.0 mph E3.2 kmh E 5.0 mph8.0 kmh 29.80 in1009.1 mb 0.00 in0.0 mm 0.00 in0.0 mm 0.00 in0.0 mm
09:50 PM 68.4°F20.2°C 61.0°F16.1°C 77% 1.0 mph E1.6 kmh E 4.0 mph6.4 kmh 29.80 in1009.1 mb 0.00 in0.0 mm 0.00 in0.0 mm 0.00 in0.0 mm
09:55 PM 68.2°F20.1°C 60.8°F16.0°C 77% Calm Calm 3.0 mph4.8 kmh 29.80 in1009.1 mb 0.00 in0.0 mm 0.00 in0.0 mm 0.00 in0.0 mm
10:00 PM 67.8°F19.9°C 60.8°F16.0°C 78% Calm Calm 1.0 mph1.6 kmh 29.80 in1009.1 mb 0.00 in0.0 mm 0.00 in0.0 mm 0.00 in0.0 mm
10:05 PM 67.6°F19.8°C 60.8°F16.0°C 79% Calm Calm -- 29.80 in1009.1 mb 0.00 in0.0 mm 0.00 in0.0 mm 0.00 in0.0 mm
10:10 PM 67.3°F19.6°C 61.0°F16.1°C 80% Calm Calm -- 29.80 in1009.1 mb 0.00 in0.0 mm 0.00 in0.0 mm 0.00 in0.0 mm
10:15 PM 66.9°F19.4°C 60.6°F15.9°C 80% Calm Calm -- 29.80 in1009.1 mb 0.00 in0.0 mm 0.00 in0.0 mm 0.00 in0.0 mm
10:20 PM 66.7°F19.3°C 60.6°F15.9°C 81% Calm Calm 1.0 mph1.6 kmh 29.80 in1009.1 mb 0.00 in0.0 mm 0.00 in0.0 mm 0.00 in0.0 mm
10:25 PM 66.7°F19.3°C 60.6°F15.9°C 81% 1.0 mph ENE1.6 kmh ENE 4.0 mph6.4 kmh 29.80 in1009.1 mb 0.00 in0.0 mm 0.00 in0.0 mm 0.00 in0.0 mm
10:30 PM 66.7°F19.3°C 60.4°F15.8°C 80% 2.0 mph ENE3.2 kmh ENE 5.0 mph8.0 kmh 29.80 in1009.1 mb 0.00 in0.0 mm 0.00 in0.0 mm 0.00 in0.0 mm
10:35 PM 66.7°F19.3°C 60.4°F15.8°C 80% 2.0 mph ENE3.2 kmh ENE 5.0 mph8.0 kmh 29.81 in1009.5 mb 0.00 in0.0 mm 0.00 in0.0 mm 0.00 in0.0 mm
10:40 PM 66.6°F19.2°C 60.3°F15.7°C 80% 1.0 mph E1.6 kmh E 5.0 mph8.0 kmh 29.81 in1009.5 mb 0.00 in0.0 mm 0.00 in0.0 mm 0.00 in0.0 mm
10:45 PM 66.6°F19.2°C 60.1°F15.6°C 80% 1.0 mph E1.6 kmh E 3.0 mph4.8 kmh 29.81 in1009.5 mb 0.00 in0.0 mm 0.00 in0.0 mm 0.00 in0.0 mm
10:50 PM 66.4°F19.1°C 60.3°F15.7°C 81% Calm Calm 3.0 mph4.8 kmh 29.81 in1009.5 mb 0.00 in0.0 mm 0.00 in0.0 mm 0.00 in0.0 mm
10:55 PM 66.0°F18.9°C 60.1°F15.6°C 81% Calm Calm 2.0 mph3.2 kmh 29.81 in1009.5 mb 0.00 in0.0 mm 0.00 in0.0 mm 0.00 in0.0 mm
11:00 PM 65.8°F18.8°C 59.7°F15.4°C 81% Calm Calm 2.0 mph3.2 kmh 29.81 in1009.5 mb 0.00 in0.0 mm 0.00 in0.0 mm 0.00 in0.0 mm
11:05 PM 65.7°F18.7°C 59.9°F15.5°C 82% Calm Calm 2.0 mph3.2 kmh 29.81 in1009.5 mb 0.00 in0.0 mm 0.00 in0.0 mm 0.00 in0.0 mm
11:10 PM 65.7°F18.7°C 59.9°F15.5°C 82% 1.0 mph E1.6 kmh E 3.0 mph4.8 kmh 29.81 in1009.5 mb 0.00 in0.0 mm 0.00 in0.0 mm 0.00 in0.0 mm
11:15 PM 65.7°F18.7°C 59.9°F15.5°C 82% 1.0 mph E1.6 kmh E 5.0 mph8.0 kmh 29.81 in1009.5 mb 0.00 in0.0 mm 0.00 in0.0 mm 0.00 in0.0 mm
11:20 PM 65.7°F18.7°C 59.9°F15.5°C 82% 1.0 mph E1.6 kmh E 5.0 mph8.0 kmh 29.80 in1009.1 mb 0.00 in0.0 mm 0.00 in0.0 mm 0.00 in0.0 mm
11:25 PM 65.5°F18.6°C 59.9°F15.5°C 82% 1.0 mph E1.6 kmh E 3.0 mph4.8 kmh 29.80 in1009.1 mb 0.00 in0.0 mm 0.00 in0.0 mm 0.00 in0.0 mm
11:30 PM 65.5°F18.6°C 59.9°F15.5°C 82% 2.0 mph ENE3.2 kmh ENE 3.0 mph4.8 kmh 29.80 in1009.1 mb 0.00 in0.0 mm 0.00 in0.0 mm 0.00 in0.0 mm
11:35 PM 65.5°F18.6°C 59.7°F15.4°C 82% 2.0 mph ENE3.2 kmh ENE 3.0 mph4.8 kmh 29.80 in1009.1 mb 0.00 in0.0 mm 0.00 in0.0 mm 0.00 in0.0 mm
11:40 PM 65.3°F18.5°C 59.7°F15.4°C 82% 1.0 mph E1.6 kmh E 3.0 mph4.8 kmh 29.80 in1009.1 mb 0.00 in0.0 mm 0.00 in0.0 mm 0.00 in0.0 mm
11:45 PM 65.1°F18.4°C 59.5°F15.3°C 82% 1.0 mph E1.6 kmh E 3.0 mph4.8 kmh 29.80 in1009.1 mb 0.00 in0.0 mm 0.00 in0.0 mm 0.00 in0.0 mm
11:50 PM 64.9°F18.3°C 59.7°F15.4°C 83% 1.0 mph E1.6 kmh E 4.0 mph6.4 kmh 29.80 in1009.1 mb 0.00 in0.0 mm 0.00 in0.0 mm 0.00 in0.0 mm
11:55 PM 64.9°F18.3°C 59.5°F15.3°C 83% 1.0 mph E1.6 kmh E 4.0 mph6.4 kmh 29.80 in1009.1 mb 0.00 in0.0 mm 0.00 in0.0 mm 0.00 in0.0 mm